DLH99E EDDF-LPPD
Flight info
| Callsign | DLH99E |
|---|---|
| Flight time | N/A |
| Altitude | 34000 |
| Route | SOBRA2L SOBRA Y180 DIK UN857 TOLVU DCT RAPOR DCT ESTOC DCT PON DCT DITAL DCT GODIX DCT DIDAK DCT KURIS DCT TERPO UN461 AKEMO DCT RIVAK/M077F340 UN460 SIVIR DCT PASAS DCT 42N020W DCT BAVAS DCT OMOBI |
| Aircraft | A320/M-SDE2E3FGIJ1LORWXYZ/HB1 |
Departure
| Time | 2026-04-17 11:17 |
|---|---|
| Airport | Frankfurt Main Airport (EDDF) |
Arrival
| Time | N/A |
|---|---|
| Airport | João Paulo II Airport (LPPD) |
| Time | Latitude | Longitude | Altitude | Speed | Heading |
|---|---|---|---|---|---|
| 2026-04-17 10:49 | 50.03694 | 8.54141 | 351 ft | 0 kts | 160° |
| 2026-04-17 11:10 | 50.03692 | 8.54143 | 355 ft | 3 kts | 160° |
| 2026-04-17 11:10 | 50.03651 | 8.54160 | 353 ft | 7 kts | 177° |
| 2026-04-17 11:10 | 50.03609 | 8.54110 | 346 ft | 12 kts | 245° |
| 2026-04-17 11:10 | 50.03579 | 8.53987 | 341 ft | 12 kts | 250° |
| 2026-04-17 11:11 | 50.03553 | 8.53877 | 338 ft | 10 kts | 250° |
| 2026-04-17 11:11 | 50.03523 | 8.53752 | 340 ft | 13 kts | 250° |
| 2026-04-17 11:11 | 50.03493 | 8.53623 | 339 ft | 14 kts | 250° |
| 2026-04-17 11:11 | 50.03455 | 8.53465 | 336 ft | 17 kts | 249° |
| 2026-04-17 11:12 | 50.03412 | 8.53288 | 336 ft | 19 kts | 249° |
| 2026-04-17 11:12 | 50.03365 | 8.53092 | 335 ft | 20 kts | 250° |
| 2026-04-17 11:12 | 50.03316 | 8.52885 | 332 ft | 18 kts | 250° |
| 2026-04-17 11:12 | 50.03294 | 8.52794 | 332 ft | 6 kts | 250° |
| 2026-04-17 11:13 | 50.03285 | 8.52755 | 333 ft | 0 kts | 250° |
| 2026-04-17 11:15 | 50.03280 | 8.52734 | 332 ft | 6 kts | 250° |
| 2026-04-17 11:15 | 50.03258 | 8.52642 | 331 ft | 10 kts | 250° |
| 2026-04-17 11:15 | 50.03211 | 8.52594 | 334 ft | 8 kts | 181° |
| 2026-04-17 11:15 | 50.03197 | 8.52594 | 335 ft | 0 kts | 179° |
| 2026-04-17 11:16 | 50.03191 | 8.52594 | 335 ft | 6 kts | 179° |
| 2026-04-17 11:16 | 50.02897 | 8.52599 | 332 ft | 79 kts | 180° |
| 2026-04-17 11:16 | 50.02138 | 8.52604 | 335 ft | 136 kts | 180° |
| 2026-04-17 11:17 | 50.01043 | 8.52613 | 477 ft | 168 kts | 180° |
| 2026-04-17 11:17 | 49.99889 | 8.52637 | 1176 ft | 166 kts | 178° |